Airfield :
LOGIN :

Register | Disclaimer

   EN    FR    IT 

 










Legend :    VFR   Marginal VFR   IFR   Intensive IFR   Very Intensive IFR
Visi :
Ceiling :
>= 8 km
>= 3000ft
5 to 8 km
1000 to 3000 ft
1500m to 5 km
500 to 1000 ft
800 to 1500m
200 to 500 ft
< 800m
< 200 ft
Symbols :   Thunderstorms  Fog  Heavy snow  Heavy precipitations  Wind > 20 kt
SIGMETs :     Misc.  Thunderstorms  Icing  Turbulence  Mountain Waves  Volcanic Ashes






- Airport Elevation : 2001 ft
- IATA code : MAD


LEMD - Madrid

CURRENT METAR :
  • 201300Z VRB05KT 9999 FEW050 13/02 Q1026 NOSIG

EXPIRED METARs :
  • 201230Z 03006KT 340V080 9999 FEW050 13/01 Q1027 NOSIG
  • 201200Z VRB02KT 9999 FEW050 12/01 Q1028 NOSIG
  • 201130Z 21003KT 190V250 9999 FEW050 11/01 Q1028 NOSIG
  • 201100Z VRB02KT 9999 FEW050 09/M00 Q1029 NOSIG
  • 201030Z VRB02KT CAVOK 07/M01 Q1029 NOSIG

TAF TAF LEMD
Valid from the 20 at 12:00 until the 21 at 18:00 UTC


201100Z 2012/2118 06006KT CAVOK TX15/2015Z TNM03/2106Z



MET'MAP, your aeronautical weather chart ! - Copyright ORBIFLY December 2007 - Disclaimer

ORBIFLY MET'MAP TEAM :

Programming & Development : Alexandra Zaïnal
Concept & original design : Baudouin d'Aumeries
Assistance for programming : Marc-Olivier Méhu
Technical & hardware support : Manuel Goepfert

Contact : metmap@orbifly.com




SOURCES & CREDITS :

   NOAA